Time;durP1;ratioP1;P1;durP2;ratioP2;P2;SDS_P1;SDS_P2;PMS_P1;PMS_P2;Temp;Humidity;BMP_temperature;BMP_pressure;BME280_temperature;BME280_humidity;BME280_pressure;Samples;Min_cycle;Max_cycle;Signal;HPM_P1;HPM_P2
2021/05/06 00:33:40;;;;;;;3.35;0.68;;;20.70;49.40;;;;;;5035015;28;20025;-36
2021/05/06 00:36:05;;;;;;;2.97;0.70;;;20.70;49.30;;;;;;5032684;28;20060;-36
2021/05/06 00:38:41;;;;;;;3.58;0.80;;;20.70;49.20;;;;;;5033508;28;20124;-36
2021/05/06 00:41:22;;;;;;;1.40;0.70;;;20.70;49.20;;;;;;5033900;28;20037;-36
2021/05/06 00:54:47;;;;;;;1.38;0.60;;;20.70;49.00;;;;;;5033834;28;20029;-36
2021/05/06 01:05:33;;;;;;;2.33;0.70;;;20.70;48.80;;;;;;5033630;28;20029;-36
2021/05/06 01:13:31;;;;;;;0.73;0.55;;;20.70;48.60;;;;;;5014408;28;20029;-36
2021/05/06 01:15:56;;;;;;;1.27;0.57;;;20.70;48.60;;;;;;5014212;28;20463;-36
2021/05/06 01:18:24;;;;;;;1.75;0.60;;;20.70;48.60;;;;;;5012263;28;20080;-36
2021/05/06 01:20:54;;;;;;;1.67;0.50;;;20.70;48.50;;;;;;5012900;28;20124;-36
2021/05/06 01:23:21;;;;;;;1.00;0.50;;;20.70;48.50;;;;;;5012207;28;20022;-36
2021/05/06 01:26:08;;;;;;;1.67;0.47;;;20.70;48.40;;;;;;5013497;28;20056;-36
2021/05/06 01:28:37;;;;;;;2.63;0.63;;;20.70;48.40;;;;;;5013781;28;20111;-36
2021/05/06 01:31:19;;;;;;;1.85;0.88;;;20.70;48.30;;;;;;5013273;28;20034;-39
2021/05/06 01:36:24;;;;;;;1.73;0.80;;;20.70;48.30;;;;;;5013139;28;20026;-36
2021/05/06 01:39:02;;;;;;;1.67;0.82;;;20.70;48.20;;;;;;5018810;28;20033;-36
2021/05/06 02:00:25;;;;;;;1.33;0.60;;;20.70;47.90;;;;;;5032359;28;20099;-37
2021/05/06 02:02:51;;;;;;;1.00;0.63;;;20.70;48.50;;;;;;5033145;28;20026;-36
2021/05/06 02:05:17;;;;;;;1.80;0.52;;;20.70;47.80;;;;;;5032477;28;20021;-36
2021/05/06 02:07:45;;;;;;;1.77;0.60;;;20.70;47.90;;;;;;5065071;28;20061;-36
2021/05/06 02:10:16;;;;;;;1.42;0.40;;;20.70;47.80;;;;;;5032311;28;20037;-36
2021/05/06 02:12:42;;;;;;;1.55;0.90;;;20.70;48.50;;;;;;5033180;28;20026;-36
2021/05/06 02:15:12;;;;;;;0.80;0.50;;;20.70;47.80;;;;;;5032251;28;20075;-36
2021/05/06 02:17:40;;;;;;;1.10;0.68;;;20.70;47.80;;;;;;5033035;28;20026;-36
2021/05/06 02:20:06;;;;;;;1.60;0.57;;;20.70;47.80;;;;;;5032132;28;20471;-36
2021/05/06 02:22:32;;;;;;;1.27;0.60;;;20.70;47.70;;;;;;5063810;28;20074;-36
2021/05/06 02:24:59;;;;;;;1.77;0.60;;;20.60;47.60;;;;;;5064825;28;20124;-37
2021/05/06 02:27:26;;;;;;;1.40;0.50;;;20.70;47.60;;;;;;5031874;28;20040;-36
2021/05/06 02:29:52;;;;;;;1.00;0.70;;;20.70;47.60;;;;;;5032639;28;20044;-36
2021/05/06 02:32:18;;;;;;;1.95;0.60;;;20.70;47.60;;;;;;5030149;28;21006;-37
2021/05/06 02:34:45;;;;;;;1.98;0.50;;;20.70;47.50;;;;;;5030876;28;20075;-36
2021/05/06 02:37:12;;;;;;;1.02;0.50;;;20.70;47.50;;;;;;5030569;28;20033;-36
2021/05/06 02:39:37;;;;;;;1.05;0.47;;;20.70;47.50;;;;;;5064407;28;20367;-36
2021/05/06 02:42:03;;;;;;;1.73;0.73;;;20.70;47.40;;;;;;5031892;28;20028;-51
2021/05/06 02:44:29;;;;;;;0.65;0.50;;;20.70;47.40;;;;;;5031021;28;20087;-40
2021/05/06 02:46:56;;;;;;;1.13;0.47;;;20.70;47.40;;;;;;5031928;28;20021;-36
2021/05/06 02:49:22;;;;;;;1.63;0.50;;;20.70;47.30;;;;;;5063576;28;20193;-36
2021/05/06 02:51:52;;;;;;;2.22;0.50;;;20.70;47.30;;;;;;5064219;28;20477;-37
2021/05/06 02:54:19;;;;;;;0.70;0.50;;;20.70;47.30;;;;;;5031704;28;20036;-36
2021/05/06 03:05:11;;;;;;;1.77;0.70;;;20.70;47.10;;;;;;5031458;28;20025;-36
2021/05/06 03:07:39;;;;;;;1.10;0.45;;;20.70;47.00;;;;;;5032417;28;20083;-36
2021/05/06 03:23:32;;;;;;;1.05;0.50;;;20.70;46.90;;;;;;5031958;28;20359;-36
2021/05/06 03:25:58;;;;;;;1.58;0.75;;;20.70;46.90;;;;;;5030606;28;20029;-36
2021/05/06 03:28:32;;;;;;;1.55;0.60;;;20.70;46.90;;;;;;5028144;28;20026;-41
2021/05/06 03:47:48;;;;;;;1.48;0.50;;;20.70;46.90;;;;;;5030604;28;20080;-37
2021/05/06 04:27:14;;;;;;;0.68;0.40;;;20.80;46.70;;;;;;5034663;28;20025;-51
2021/05/06 04:30:44;;;;;;;1.08;0.50;;;20.80;46.70;;;;;;5034891;28;20033;-36
2021/05/06 04:37:45;;;;;;;0.93;0.60;;;20.80;46.60;;;;;;5032395;28;20453;-36
2021/05/06 04:53:52;;;;;;;0.88;0.50;;;20.80;46.50;;;;;;5032239;28;20096;-36
2021/05/06 05:04:30;;;;;;;1.33;0.50;;;20.80;46.40;;;;;;5031463;28;20815;-36
2021/05/06 05:07:32;;;;;;;1.77;0.60;;;20.80;46.30;;;;;;5015325;28;20490;-36
2021/05/06 05:15:04;;;;;;;0.65;0.45;;;20.80;46.30;;;;;;5030399;28;20033;-38
2021/05/06 05:27:47;;;;;;;1.38;0.40;;;20.80;46.20;;;;;;5033673;28;20111;-36
2021/05/06 05:30:13;;;;;;;4.13;0.88;;;20.80;46.50;;;;;;5031789;28;20033;-36
2021/05/06 05:32:39;;;;;;;3.90;0.70;;;20.80;46.80;;;;;;5033696;28;20026;-36
2021/05/06 05:35:10;;;;;;;5.07;0.80;;;20.90;46.70;;;;;;5033339;28;20041;-36
2021/05/06 05:37:43;;;;;;;4.57;0.70;;;20.90;47.40;;;;;;5032339;28;20029;-36
2021/05/06 05:45:37;;;;;;;1.83;0.90;;;20.90;47.60;;;;;;5032670;28;20030;-51
2021/05/06 05:55:53;;;;;;;5.00;0.82;;;21.00;48.50;;;;;;5033278;28;20497;-37
2021/05/06 05:58:19;;;;;;;5.78;0.80;;;21.10;48.60;;;;;;5032025;28;20045;-36
2021/05/06 06:00:44;;;;;;;4.95;0.80;;;21.10;48.90;;;;;;5032617;28;20034;-36
2021/05/06 06:03:10;;;;;;;10.80;1.30;;;21.10;49.10;;;;;;5031545;28;20386;-52
2021/05/06 06:05:36;;;;;;;14.27;1.63;;;21.10;49.40;;;;;;5032873;28;20374;-36
2021/05/06 06:08:01;;;;;;;12.63;1.15;;;21.10;49.50;;;;;;5033244;28;20033;-36
2021/05/06 06:10:27;;;;;;;5.35;1.33;;;21.10;49.30;;;;;;5024933;28;20432;-36
2021/05/06 06:12:55;;;;;;;8.15;1.40;;;20.60;42.90;;;;;;5064748;28;20481;-36
2021/05/06 06:18:16;;;;;;;4.68;1.48;;;18.50;42.60;;;;;;5030687;28;20044;-35
2021/05/06 06:20:45;;;;;;;6.90;1.50;;;17.70;43.00;;;;;;5033689;28;20037;-35
2021/05/06 06:23:11;;;;;;;2.95;1.02;;;16.90;44.20;;;;;;5015902;28;20513;-50
2021/05/06 06:25:36;;;;;;;2.72;0.95;;;16.80;44.40;;;;;;5032247;28;20053;-35
2021/05/06 06:28:08;;;;;;;3.55;1.15;;;17.00;44.00;;;;;;5032275;28;20111;-35
2021/05/06 06:30:35;;;;;;;5.68;1.70;;;17.80;43.20;;;;;;5030848;28;20040;-35
2021/05/06 06:33:01;;;;;;;5.30;1.23;;;18.60;42.60;;;;;;5032579;28;20189;-35
2021/05/06 06:35:26;;;;;;;4.25;1.35;;;19.10;42.60;;;;;;5030434;28;20115;-35
2021/05/06 06:37:52;;;;;;;1.63;0.80;;;19.50;43.20;;;;;;5031148;28;20036;-35
2021/05/06 06:40:19;;;;;;;3.72;0.88;;;19.70;42.60;;;;;;5030309;28;20478;-36
2021/05/06 06:42:44;;;;;;;3.63;1.13;;;19.80;42.50;;;;;;5022194;28;20026;-35
2021/05/06 06:45:10;;;;;;;2.40;1.40;;;19.90;42.60;;;;;;5031950;28;20382;-49
2021/05/06 06:47:36;;;;;;;2.65;0.93;;;20.00;43.20;;;;;;5031761;28;20537;-36
2021/05/06 06:50:02;;;;;;;3.03;1.10;;;20.10;42.60;;;;;;5032121;28;20163;-35
2021/05/06 06:52:28;;;;;;;2.05;0.68;;;20.10;42.60;;;;;;5030018;28;20025;-35
2021/05/06 06:54:54;;;;;;;3.58;0.98;;;20.10;42.80;;;;;;5031125;28;20040;-35
2021/05/06 06:57:21;;;;;;;3.33;1.30;;;20.20;42.80;;;;;;5030767;28;20025;-35
2021/05/06 06:59:47;;;;;;;2.53;1.00;;;20.20;42.80;;;;;;5030896;28;20037;-35
2021/05/06 07:02:13;;;;;;;2.47;0.98;;;20.30;42.90;;;;;;5031801;28;20537;-49
2021/05/06 07:04:39;;;;;;;1.42;0.82;;;20.30;43.00;;;;;;5028889;28;20040;-35
2021/05/06 07:07:05;;;;;;;2.60;0.70;;;20.30;43.00;;;;;;5063672;28;20120;-35
2021/05/06 07:09:30;;;;;;;1.40;0.77;;;20.30;43.00;;;;;;5030923;28;20884;-36
2021/05/06 07:11:56;;;;;;;2.05;0.90;;;20.40;43.10;;;;;;5031711;28;20033;-35
2021/05/06 07:14:22;;;;;;;2.55;0.70;;;20.40;43.10;;;;;;5029842;28;20101;-36
2021/05/06 07:16:48;;;;;;;1.67;0.80;;;20.40;43.20;;;;;;5030145;28;20430;-35
2021/05/06 07:19:13;;;;;;;4.25;1.70;;;20.40;43.10;;;;;;5030207;28;20033;-50
2021/05/06 07:21:39;;;;;;;1.63;0.70;;;20.40;43.10;;;;;;5031409;28;20037;-35
2021/05/06 07:24:05;;;;;;;3.67;1.08;;;20.40;43.80;;;;;;5031286;28;20351;-35
2021/05/06 07:26:31;;;;;;;2.38;0.80;;;20.50;43.30;;;;;;5030718;28;20449;-35
2021/05/06 07:28:57;;;;;;;2.38;0.98;;;20.50;43.40;;;;;;5032167;28;20056;-35
2021/05/06 07:31:23;;;;;;;2.28;0.80;;;20.60;43.50;;;;;;5030838;28;20037;-36
2021/05/06 07:33:50;;;;;;;1.80;0.80;;;20.60;43.40;;;;;;5031258;28;20060;-36
2021/05/06 07:36:17;;;;;;;2.58;1.00;;;20.70;43.60;;;;;;5031157;28;20030;-50
2021/05/06 07:38:44;;;;;;;2.88;1.05;;;20.60;43.70;;;;;;5031459;28;20374;-35
2021/05/06 07:41:12;;;;;;;2.00;0.90;;;20.70;44.20;;;;;;5031421;28;20038;-35
2021/05/06 07:43:38;;;;;;;2.83;0.88;;;20.70;44.10;;;;;;5029788;28;20037;-35
2021/05/06 07:46:04;;;;;;;3.33;0.70;;;20.70;44.40;;;;;;5031859;28;20032;-36
2021/05/06 07:48:29;;;;;;;1.70;0.80;;;20.80;44.50;;;;;;5030455;28;20100;-36
2021/05/06 07:50:55;;;;;;;1.08;0.70;;;20.80;44.60;;;;;;5031466;28;20109;-35
2021/05/06 07:53:26;;;;;;;1.88;0.70;;;20.80;44.60;;;;;;5030544;28;20032;-36
2021/05/06 07:55:53;;;;;;;2.65;0.70;;;20.80;44.70;;;;;;5031912;28;20021;-36
2021/05/06 07:58:19;;;;;;;1.77;0.70;;;20.80;44.80;;;;;;5027083;28;20099;-36
2021/05/06 08:00:46;;;;;;;2.00;0.90;;;20.80;44.80;;;;;;5063202;28;20076;-35
2021/05/06 08:03:12;;;;;;;3.22;0.93;;;20.90;44.90;;;;;;5031454;28;20041;-36
2021/05/06 08:05:38;;;;;;;1.95;0.65;;;20.90;44.90;;;;;;5046240;28;20079;-36
2021/05/06 08:08:05;;;;;;;1.42;0.80;;;20.90;45.00;;;;;;5063074;28;20382;-35
2021/05/06 08:10:31;;;;;;;2.10;0.80;;;20.90;45.00;;;;;;5030149;28;20039;-36
2021/05/06 08:12:58;;;;;;;3.05;0.95;;;20.90;45.10;;;;;;5030175;28;20071;-35
2021/05/06 08:15:24;;;;;;;1.15;0.52;;;20.90;45.10;;;;;;5062654;28;20065;-36
2021/05/06 08:17:51;;;;;;;2.00;0.90;;;20.90;45.20;;;;;;5062999;28;20021;-36
2021/05/06 08:20:18;;;;;;;2.25;0.90;;;20.90;45.10;;;;;;5030624;28;20099;-50
2021/05/06 08:22:44;;;;;;;0.98;0.70;;;20.90;45.20;;;;;;5063220;28;20033;-35
2021/05/06 08:25:12;;;;;;;1.85;0.73;;;21.00;45.30;;;;;;5031021;28;20502;-35
2021/05/06 08:27:39;;;;;;;2.00;0.77;;;21.00;45.30;;;;;;5030604;28;20091;-35
2021/05/06 08:30:06;;;;;;;2.20;0.98;;;21.00;45.40;;;;;;5031222;28;20033;-35
2021/05/06 08:32:32;;;;;;;1.85;0.60;;;21.00;45.40;;;;;;5030371;28;20033;-35
2021/05/06 08:34:58;;;;;;;1.50;0.63;;;21.00;45.40;;;;;;5030205;28;20041;-35
2021/05/06 08:37:24;;;;;;;1.75;1.20;;;21.00;45.40;;;;;;5034318;28;20462;-36
2021/05/06 08:39:52;;;;;;;1.42;0.52;;;21.00;45.40;;;;;;5034217;28;20044;-37
2021/05/06 08:42:18;;;;;;;3.72;1.00;;;21.00;45.60;;;;;;5034386;28;20355;-50
2021/05/06 08:44:44;;;;;;;2.50;0.70;;;21.00;45.60;;;;;;5033234;28;20072;-35
2021/05/06 08:47:17;;;;;;;4.32;0.82;;;21.10;45.70;;;;;;5066643;28;20049;-36
2021/05/06 08:49:43;;;;;;;6.28;1.85;;;21.00;46.10;;;;;;5034184;28;20029;-38
2021/05/06 08:52:11;;;;;;;3.85;0.90;;;21.10;46.10;;;;;;5031906;28;20040;-35
2021/05/06 08:54:39;;;;;;;2.38;0.88;;;21.00;46.10;;;;;;5033213;28;20124;-35
2021/05/06 08:57:12;;;;;;;2.45;0.82;;;21.00;46.10;;;;;;5034043;28;20476;-35
2021/05/06 08:59:38;;;;;;;4.22;0.95;;;21.00;46.10;;;;;;5045265;28;20305;-36
2021/05/06 09:02:04;;;;;;;1.92;1.17;;;21.10;46.10;;;;;;5046525;28;20489;-36
2021/05/06 09:04:31;;;;;;;0.65;0.52;;;21.00;46.00;;;;;;5045280;28;20048;-35
2021/05/06 09:07:01;;;;;;;0.85;0.60;;;21.00;45.90;;;;;;5014699;28;20026;-35
2021/05/06 09:09:30;;;;;;;1.60;0.70;;;21.00;45.90;;;;;;5045546;28;20038;-36
2021/05/06 09:11:57;;;;;;;3.00;0.70;;;21.00;45.80;;;;;;5045824;28;20113;-35
2021/05/06 09:14:49;;;;;;;2.00;0.65;;;21.00;45.80;;;;;;5013683;28;20048;-36
2021/05/06 09:17:34;;;;;;;2.28;0.80;;;21.00;45.70;;;;;;5045949;28;20037;-40
2021/05/06 09:20:25;;;;;;;1.92;0.50;;;21.00;45.60;;;;;;5014057;28;20058;-35
2021/05/06 09:22:57;;;;;;;3.08;0.70;;;21.00;45.60;;;;;;5014243;28;20185;-35
2021/05/06 09:25:32;;;;;;;1.85;0.63;;;21.00;45.60;;;;;;5011938;28;20467;-36
2021/05/06 09:28:16;;;;;;;2.88;1.05;;;21.00;45.50;;;;;;5014422;28;20026;-35
2021/05/06 09:31:24;;;;;;;4.15;1.08;;;21.00;45.50;;;;;;5012247;28;20040;-36
2021/05/06 09:33:51;;;;;;;2.47;1.10;;;21.00;45.50;;;;;;5011525;28;20033;-36
2021/05/06 09:36:22;;;;;;;1.50;0.80;;;21.00;45.40;;;;;;4995090;28;20026;-50
2021/05/06 09:38:52;;;;;;;0.87;0.63;;;21.00;45.40;;;;;;5011585;28;20038;-36
2021/05/06 09:41:20;;;;;;;1.02;0.60;;;21.00;45.40;;;;;;5010951;28;20112;-50
2021/05/06 09:43:47;;;;;;;1.80;0.93;;;21.00;45.40;;;;;;5011329;28;20034;-36
2021/05/06 09:46:24;;;;;;;1.77;0.60;;;21.00;45.40;;;;;;5001911;28;20510;-36
2021/05/06 09:49:01;;;;;;;4.15;0.98;;;21.00;45.30;;;;;;5004777;28;20095;-35
2021/05/06 09:51:47;;;;;;;1.52;0.70;;;21.00;45.30;;;;;;4994092;28;20045;-36
2021/05/06 09:54:25;;;;;;;3.17;0.90;;;21.00;45.30;;;;;;5011074;28;20108;-36
2021/05/06 09:57:02;;;;;;;2.10;0.65;;;21.00;45.20;;;;;;5011017;28;20041;-35
2021/05/06 09:59:35;;;;;;;2.33;0.80;;;21.00;45.20;;;;;;4993208;28;20065;-36
2021/05/06 10:02:10;;;;;;;2.42;0.77;;;21.00;45.20;;;;;;5011064;28;20084;-35
2021/05/06 10:04:40;;;;;;;2.22;0.80;;;21.00;45.20;;;;;;5011466;28;20046;-37
2021/05/06 10:07:23;;;;;;;1.75;0.63;;;21.00;45.20;;;;;;5012097;28;20382;-36
2021/05/06 10:10:07;;;;;;;2.33;0.75;;;21.00;45.10;;;;;;5013317;28;20117;-35
2021/05/06 10:12:35;;;;;;;1.92;0.57;;;21.00;45.20;;;;;;5012104;28;20360;-35
2021/05/06 10:15:03;;;;;;;1.63;1.00;;;21.00;45.20;;;;;;5013302;28;20026;-35
2021/05/06 10:17:30;;;;;;;2.53;1.00;;;21.00;45.50;;;;;;5012155;28;20042;-36
2021/05/06 10:19:56;;;;;;;1.30;0.50;;;21.00;45.50;;;;;;5010938;28;20390;-38
2021/05/06 10:22:26;;;;;;;1.52;0.95;;;21.00;45.50;;;;;;5012600;28;20117;-50
2021/05/06 10:24:52;;;;;;;0.90;0.60;;;21.00;45.50;;;;;;5011734;28;20065;-35
2021/05/06 10:27:23;;;;;;;2.45;0.80;;;21.10;45.60;;;;;;5011266;28;20391;-36
2021/05/06 10:29:56;;;;;;;1.95;0.90;;;21.10;45.60;;;;;;5007234;28;20116;-35
2021/05/06 10:32:30;;;;;;;4.32;0.70;;;21.10;45.50;;;;;;5010930;28;20026;-50
2021/05/06 10:34:58;;;;;;;1.02;0.70;;;21.10;45.60;;;;;;5011948;28;20037;-36
2021/05/06 10:37:30;;;;;;;0.93;0.68;;;21.10;45.60;;;;;;5011677;28;20084;-36
2021/05/06 10:39:56;;;;;;;;;;;21.00;45.50;;;;;;5009369;28;20029;-36
2021/05/06 10:42:25;;;;;;;2.70;0.93;;;21.00;45.90;;;;;;5011080;28;20382;-50
2021/05/06 10:44:52;;;;;;;3.15;0.80;;;21.00;46.10;;;;;;5012903;28;20030;-36
2021/05/06 10:47:20;;;;;;;1.27;0.60;;;21.00;46.10;;;;;;5012434;28;20061;-36
2021/05/06 10:49:49;;;;;;;1.88;0.85;;;21.00;46.10;;;;;;5011967;28;20026;-36
2021/05/06 10:52:16;;;;;;;2.83;1.20;;;21.00;46.10;;;;;;5012718;28;20371;-35
2021/05/06 10:54:50;;;;;;;2.20;0.90;;;21.00;46.10;;;;;;5011723;28;20489;-36
2021/05/06 10:57:18;;;;;;;1.63;0.90;;;21.00;46.10;;;;;;5012764;28;20034;-36
2021/05/06 10:59:46;;;;;;;3.03;1.02;;;21.00;46.10;;;;;;5031199;28;20029;-38
2021/05/06 11:02:40;;;;;;;2.10;0.70;;;21.00;46.10;;;;;;5030940;28;20178;-35
2021/05/06 11:05:18;;;;;;;2.25;0.60;;;21.00;46.10;;;;;;5031783;28;20025;-36
2021/05/06 11:08:04;;;;;;;3.90;0.98;;;21.00;46.10;;;;;;5031923;28;20034;-36
2021/05/06 11:10:51;;;;;;;2.03;0.63;;;21.00;46.10;;;;;;5022467;28;20095;-35
2021/05/06 11:13:18;;;;;;;1.48;0.80;;;21.00;46.00;;;;;;5027465;28;20033;-36
2021/05/06 11:15:45;;;;;;;1.73;0.60;;;21.00;46.00;;;;;;5031122;28;20517;-36
2021/05/06 11:18:12;;;;;;;1.27;0.60;;;21.00;45.90;;;;;;5030579;28;20374;-36
2021/05/06 11:20:46;;;;;;;2.78;0.60;;;21.00;46.00;;;;;;5030778;28;20056;-36
2021/05/06 11:23:21;;;;;;;0.82;0.50;;;21.00;45.90;;;;;;5030769;28;20060;-35
2021/05/06 11:25:47;;;;;;;1.50;0.52;;;21.00;45.90;;;;;;5031688;28;20075;-36
2021/05/06 11:28:18;;;;;;;1.10;0.70;;;21.00;45.90;;;;;;5030305;28;20060;-36
2021/05/06 11:30:46;;;;;;;2.17;0.65;;;21.00;45.90;;;;;;5030919;28;20108;-36
2021/05/06 11:33:21;;;;;;;1.88;1.20;;;21.00;45.80;;;;;;5030572;28;20030;-35
2021/05/06 11:36:03;;;;;;;1.98;0.68;;;21.00;45.90;;;;;;5027248;28;20076;-36
2021/05/06 11:38:35;;;;;;;6.45;1.00;;;21.00;46.00;;;;;;5063006;28;20059;-36
2021/05/06 11:41:05;;;;;;;4.10;0.90;;;21.10;46.70;;;;;;5031522;28;20152;-36
2021/05/06 11:43:32;;;;;;;6.90;0.90;;;21.10;46.90;;;;;;5062804;28;20474;-36
2021/05/06 11:46:15;;;;;;;3.30;1.25;;;21.10;47.10;;;;;;5031323;28;20064;-36
2021/05/06 11:48:46;;;;;;;3.38;0.70;;;21.10;46.90;;;;;;5030978;28;20695;-35
2021/05/06 11:51:22;;;;;;;3.03;0.90;;;21.00;46.80;;;;;;5024287;28;20398;-36
2021/05/06 11:54:04;;;;;;;3.33;0.75;;;21.00;46.80;;;;;;5031406;28;20487;-36
2021/05/06 11:56:30;;;;;;;2.60;0.70;;;21.00;46.80;;;;;;5031213;28;20022;-36
2021/05/06 11:58:56;;;;;;;2.42;1.05;;;21.00;46.70;;;;;;5031026;28;20125;-35
2021/05/06 12:01:28;;;;;;;3.45;0.70;;;21.00;46.80;;;;;;5031013;28;20413;-50
2021/05/06 12:03:55;;;;;;;5.38;1.05;;;21.00;46.70;;;;;;5031606;28;20037;-35
2021/05/06 12:06:34;;;;;;;1.55;0.80;;;21.00;46.60;;;;;;5031420;28;20036;-50
2021/05/06 12:09:03;;;;;;;2.92;0.73;;;21.00;46.60;;;;;;5031768;28;20034;-35
2021/05/06 12:11:33;;;;;;;3.88;0.75;;;21.00;46.50;;;;;;5033137;28;20457;-37
2021/05/06 12:13:59;;;;;;;3.15;0.85;;;21.00;46.50;;;;;;5035221;28;20030;-35
2021/05/06 12:16:27;;;;;;;2.85;0.90;;;21.00;46.40;;;;;;5033026;28;20032;-41
2021/05/06 12:18:58;;;;;;;4.93;0.73;;;21.00;46.40;;;;;;5034994;28;20100;-35
2021/05/06 12:21:29;;;;;;;2.85;0.82;;;21.00;46.40;;;;;;5034416;28;20040;-50
2021/05/06 12:23:54;;;;;;;1.95;0.90;;;21.00;46.40;;;;;;5034942;28;20045;-35
2021/05/06 12:26:20;;;;;;;3.03;1.05;;;21.00;46.30;;;;;;5034985;28;20527;-44
2021/05/06 12:28:47;;;;;;;1.45;0.60;;;20.90;46.20;;;;;;5029329;28;20033;-36
2021/05/06 12:31:13;;;;;;;2.08;0.70;;;21.00;46.20;;;;;;5033247;28;20493;-36
2021/05/06 12:33:38;;;;;;;3.35;0.80;;;20.90;46.10;;;;;;5033811;28;20061;-36
2021/05/06 12:36:05;;;;;;;2.78;1.10;;;21.00;46.10;;;;;;5033524;28;20394;-35
2021/05/06 12:38:31;;;;;;;1.40;0.60;;;21.00;46.10;;;;;;5034267;28;20091;-35
2021/05/06 12:41:03;;;;;;;1.13;0.60;;;20.90;46.00;;;;;;5034640;28;20041;-36
2021/05/06 12:43:35;;;;;;;2.20;0.75;;;21.00;46.10;;;;;;5065885;28;20040;-37
2021/05/06 12:46:09;;;;;;;1.77;0.80;;;21.00;46.10;;;;;;5066705;28;20080;-36
2021/05/06 12:48:53;;;;;;;1.70;0.50;;;21.00;46.10;;;;;;5065717;28;20038;-36
2021/05/06 12:51:25;;;;;;;2.72;0.80;;;21.00;46.10;;;;;;5034501;28;20060;-36
2021/05/06 12:54:02;;;;;;;2.67;0.70;;;20.90;46.00;;;;;;5033065;28;20057;-35
2021/05/06 12:56:38;;;;;;;3.20;0.60;;;20.90;46.00;;;;;;5065862;28;20497;-36
2021/05/06 12:59:29;;;;;;;3.40;0.40;;;20.90;46.00;;;;;;5033888;28;20081;-36
2021/05/06 13:02:08;;;;;;;1.70;0.60;;;21.00;46.10;;;;;;5034221;28;20399;-36
2021/05/06 13:04:43;;;;;;;0.82;0.70;;;21.00;46.10;;;;;;5032114;28;20033;-36
2021/05/06 13:07:09;;;;;;;2.10;0.90;;;20.90;46.10;;;;;;5034213;28;20033;-36
2021/05/06 13:09:43;;;;;;;1.23;0.80;;;20.90;46.00;;;;;;5033741;28;20462;-36
2021/05/06 13:12:23;;;;;;;1.63;0.50;;;20.90;46.00;;;;;;5034208;28;20034;-36
2021/05/06 13:14:53;;;;;;;2.05;0.60;;;20.90;46.00;;;;;;5033663;28;20030;-36
2021/05/06 13:17:24;;;;;;;0.70;0.40;;;20.90;46.00;;;;;;5016035;28;20036;-36
2021/05/06 13:19:50;;;;;;;1.47;0.80;;;20.90;46.70;;;;;;5033594;28;20029;-40
2021/05/06 13:22:16;;;;;;;1.25;0.60;;;20.90;46.00;;;;;;5030551;28;20437;-39
2021/05/06 13:24:45;;;;;;;2.40;0.60;;;20.90;46.00;;;;;;5031499;28;20120;-36
2021/05/06 13:27:19;;;;;;;1.13;0.50;;;20.90;46.00;;;;;;5033956;28;20022;-36
2021/05/06 13:29:47;;;;;;;2.13;0.80;;;20.90;46.00;;;;;;5033046;28;20041;-36
2021/05/06 13:32:12;;;;;;;0.73;0.43;;;20.90;46.00;;;;;;5033451;28;20536;-35
2021/05/06 13:34:53;;;;;;;1.15;0.60;;;20.90;46.10;;;;;;5031625;28;20025;-36
2021/05/06 13:37:19;;;;;;;1.48;0.80;;;20.90;46.10;;;;;;5065707;28;20466;-36
2021/05/06 13:39:44;;;;;;;1.48;0.50;;;20.90;46.10;;;;;;5033043;28;20025;-36
2021/05/06 13:42:10;;;;;;;1.10;0.60;;;20.90;46.10;;;;;;5032404;28;20068;-35
2021/05/06 13:44:36;;;;;;;0.88;0.45;;;20.90;46.10;;;;;;5031309;28;20492;-36
2021/05/06 13:47:06;;;;;;;1.15;0.57;;;20.90;46.10;;;;;;5033158;28;20083;-36
2021/05/06 13:49:33;;;;;;;1.65;0.57;;;20.90;46.10;;;;;;5064466;28;20060;-36
2021/05/06 13:52:01;;;;;;;1.45;0.50;;;20.90;46.20;;;;;;5065538;28;20033;-38
2021/05/06 13:54:27;;;;;;;0.70;0.40;;;20.90;46.20;;;;;;5032971;28;20029;-50
2021/05/06 13:56:54;;;;;;;0.68;0.50;;;20.90;46.20;;;;;;5032760;28;20088;-35
2021/05/06 13:59:20;;;;;;;1.35;0.40;;;20.90;46.30;;;;;;5032708;28;20045;-36
2021/05/06 14:01:52;;;;;;;1.02;0.50;;;20.90;46.30;;;;;;5063892;28;20098;-36
2021/05/06 14:04:18;;;;;;;0.90;0.50;;;20.90;46.30;;;;;;5032990;28;20044;-36
2021/05/06 14:06:44;;;;;;;0.50;0.40;;;20.90;46.40;;;;;;5032100;28;20029;-36
2021/05/06 14:09:15;;;;;;;1.08;0.50;;;20.90;46.40;;;;;;5033020;28;20048;-36
2021/05/06 14:11:41;;;;;;;1.40;0.63;;;20.90;46.40;;;;;;5032076;28;20040;-36
2021/05/06 14:14:07;;;;;;;0.98;0.60;;;20.90;46.50;;;;;;5032198;28;20025;-35
2021/05/06 14:16:32;;;;;;;1.00;0.55;;;20.90;46.50;;;;;;5028099;28;20033;-37
2021/05/06 14:18:58;;;;;;;0.82;0.50;;;20.90;46.50;;;;;;5032142;28;20029;-36
2021/05/06 14:21:25;;;;;;;1.10;0.60;;;20.90;46.50;;;;;;5032696;28;20026;-35
2021/05/06 14:23:52;;;;;;;1.45;0.50;;;20.90;46.50;;;;;;5031944;28;20211;-35
2021/05/06 14:26:21;;;;;;;1.40;0.70;;;20.90;46.60;;;;;;5032829;28;20344;-36
2021/05/06 14:28:47;;;;;;;1.08;0.60;;;20.90;46.60;;;;;;5031563;28;20029;-35
2021/05/06 14:31:13;;;;;;;0.55;0.30;;;20.90;46.60;;;;;;5032369;28;20080;-36
2021/05/06 14:33:39;;;;;;;1.10;0.55;;;20.90;46.60;;;;;;5030354;28;20459;-36
2021/05/06 14:36:09;;;;;;;1.30;0.68;;;21.00;46.60;;;;;;5032452;28;20033;-35
2021/05/06 14:38:36;;;;;;;1.45;0.70;;;20.90;46.60;;;;;;5030773;28;20026;-51
2021/05/06 14:41:02;;;;;;;3.35;0.43;;;20.90;47.10;;;;;;5037569;28;20030;-51
2021/05/06 14:43:28;;;;;;;2.22;0.50;;;20.90;47.80;;;;;;5031585;28;20114;-50
2021/05/06 14:45:53;;;;;;;1.58;0.50;;;20.90;47.30;;;;;;5030652;28;20447;-35
2021/05/06 14:48:19;;;;;;;0.50;0.40;;;20.90;47.40;;;;;;5032357;28;20030;-37
2021/05/06 14:50:46;;;;;;;1.83;0.60;;;21.00;47.60;;;;;;5031544;28;20041;-36
2021/05/06 14:53:12;;;;;;;8.82;0.80;;;20.90;47.10;;;;;;5030894;28;20022;-39
2021/05/06 14:55:38;;;;;;;5.32;1.70;;;20.80;47.40;;;;;;5029786;28;20029;-35
2021/05/06 14:58:03;;;;;;;4.43;0.75;;;20.80;48.10;;;;;;5031912;28;20479;-35
2021/05/06 15:00:29;;;;;;;4.38;1.25;;;20.90;48.10;;;;;;5031598;28;20430;-50
2021/05/06 15:03:00;;;;;;;3.83;0.80;;;20.90;48.10;;;;;;5030307;28;20103;-35
2021/05/06 15:05:25;;;;;;;4.35;1.05;;;20.90;48.20;;;;;;5030645;28;20455;-35
2021/05/06 15:07:51;;;;;;;5.28;1.00;;;20.90;48.20;;;;;;5031121;28;20025;-36
2021/05/06 15:10:17;;;;;;;2.53;0.77;;;20.90;48.30;;;;;;5027673;28;20026;-43
2021/05/06 15:12:47;;;;;;;6.38;0.80;;;21.00;48.50;;;;;;5060269;28;20034;-36
2021/05/06 15:15:14;;;;;;;3.50;0.80;;;21.00;48.60;;;;;;5031776;28;20029;-36
2021/05/06 15:17:40;;;;;;;3.33;0.80;;;21.00;48.50;;;;;;5030637;28;20021;-43
2021/05/06 15:20:07;;;;;;;3.67;0.88;;;21.00;48.60;;;;;;5030123;28;20048;-36
2021/05/06 15:22:34;;;;;;;4.75;0.80;;;21.00;48.60;;;;;;5030592;28;20044;-35
2021/05/06 15:24:59;;;;;;;6.25;1.05;;;21.00;48.70;;;;;;5031802;28;20033;-36
2021/05/06 15:27:25;;;;;;;8.48;0.82;;;21.00;48.70;;;;;;5030266;28;20125;-36
2021/05/06 15:29:52;;;;;;;5.05;1.05;;;21.00;48.80;;;;;;5030872;28;20494;-35
2021/05/06 15:32:17;;;;;;;5.10;1.02;;;21.00;48.80;;;;;;5030522;28;20040;-36
2021/05/06 15:34:43;;;;;;;5.50;0.77;;;21.00;48.90;;;;;;5013056;28;20116;-36
2021/05/06 15:37:09;;;;;;;1.88;0.75;;;21.10;49.00;;;;;;5032031;28;20022;-36
2021/05/06 15:39:36;;;;;;;6.05;0.98;;;21.10;49.00;;;;;;5029134;28;20033;-36
2021/05/06 15:42:02;;;;;;;8.48;0.80;;;21.00;48.90;;;;;;5030891;28;20045;-36
2021/05/06 15:44:28;;;;;;;3.53;0.80;;;21.10;49.00;;;;;;5032263;28;20426;-50
2021/05/06 15:47:04;;;;;;;4.03;0.80;;;21.00;49.00;;;;;;5034031;28;20111;-36
2021/05/06 15:49:37;;;;;;;8.73;0.90;;;21.00;49.10;;;;;;5034965;28;20036;-50
2021/05/06 15:52:04;;;;;;;5.45;1.48;;;21.00;49.10;;;;;;5035842;28;20037;-37
2021/05/06 15:54:31;;;;;;;4.32;1.10;;;21.00;49.10;;;;;;5033297;28;20053;-51
2021/05/06 15:56:57;;;;;;;6.28;1.30;;;21.00;49.10;;;;;;5034181;28;20026;-36
2021/05/06 15:59:23;;;;;;;2.97;0.95;;;21.00;49.10;;;;;;5033930;28;20054;-36
2021/05/06 16:01:50;;;;;;;2.70;0.90;;;21.00;49.20;;;;;;5034497;28;20363;-35
2021/05/06 16:04:21;;;;;;;4.13;0.65;;;21.00;49.20;;;;;;5034022;28;20040;-35
2021/05/06 16:06:48;;;;;;;7.43;1.05;;;21.00;49.20;;;;;;5027931;28;20017;-36
2021/05/06 16:09:14;;;;;;;2.78;0.70;;;21.00;49.20;;;;;;5033396;28;20041;-36
2021/05/06 16:11:39;;;;;;;3.65;0.85;;;21.00;49.30;;;;;;5033983;28;20030;-38
2021/05/06 16:14:05;;;;;;;3.78;0.88;;;21.00;49.20;;;;;;5035517;28;20096;-36
2021/05/06 16:16:31;;;;;;;7.45;1.02;;;21.00;49.20;;;;;;5034299;28;20033;-50
2021/05/06 16:18:57;;;;;;;7.90;1.20;;;21.10;49.50;;;;;;5033188;28;20030;-35
2021/05/06 16:21:22;;;;;;;10.90;1.48;;;21.10;49.70;;;;;;5034522;28;20063;-35
2021/05/06 16:23:48;;;;;;;9.40;1.38;;;21.10;49.60;;;;;;5032975;28;20056;-35
2021/05/06 16:26:14;;;;;;;10.70;1.70;;;21.20;50.40;;;;;;5033725;28;20056;-35
2021/05/06 16:28:40;;;;;;;9.40;1.88;;;21.10;50.50;;;;;;5033802;28;20025;-35
2021/05/06 16:31:06;;;;;;;6.50;1.25;;;21.20;50.20;;;;;;5033425;28;20041;-35